createdAt,value
2022-10-17T00:00:25.299Z,14.75
2022-10-17T00:01:25.303Z,14.75
2022-10-17T00:02:25.262Z,14.71
2022-10-17T00:03:25.243Z,14.74
2022-10-17T00:04:25.293Z,14.71
2022-10-17T00:05:25.233Z,14.69
2022-10-17T00:06:25.222Z,14.72
2022-10-17T00:07:25.449Z,14.69
2022-10-17T00:08:25.202Z,14.68
2022-10-17T00:09:25.182Z,14.65
2022-10-17T00:10:25.165Z,14.67
2022-10-17T00:11:25.149Z,14.64
2022-10-17T00:12:25.153Z,14.62
2022-10-17T00:13:25.172Z,14.62
2022-10-17T00:14:25.130Z,14.61
2022-10-17T00:15:25.116Z,14.61
2022-10-17T00:16:25.096Z,14.57
2022-10-17T00:17:25.316Z,14.56
2022-10-17T00:18:26.537Z,14.56
2022-10-17T00:19:25.087Z,14.54
2022-10-17T00:20:25.057Z,14.52
2022-10-17T00:21:25.038Z,14.50
2022-10-17T00:22:25.122Z,14.52
2022-10-17T00:23:25.017Z,14.50
2022-10-17T00:24:25.027Z,14.50
2022-10-17T00:25:25.020Z,14.50
2022-10-17T00:26:25.000Z,14.46
2022-10-17T00:27:25.344Z,14.46
2022-10-17T00:28:24.990Z,14.43
2022-10-17T00:29:24.950Z,14.42
2022-10-17T00:30:24.952Z,14.39
2022-10-17T00:31:24.951Z,14.39
2022-10-17T00:32:25.296Z,14.39
2022-10-17T00:33:24.903Z,14.42
2022-10-17T00:34:24.902Z,14.42
2022-10-17T00:35:24.908Z,14.42
2022-10-17T00:36:24.887Z,14.42
2022-10-17T00:37:24.865Z,14.43
2022-10-17T00:38:24.862Z,14.44
2022-10-17T00:39:24.842Z,14.44
2022-10-17T00:40:24.852Z,14.43
2022-10-17T00:41:24.819Z,14.44
2022-10-17T00:42:25.174Z,14.43
2022-10-17T00:43:24.819Z,14.43
2022-10-17T00:44:24.805Z,14.43
2022-10-17T00:45:24.774Z,14.42
2022-10-17T00:46:24.771Z,14.39
2022-10-17T00:47:24.779Z,14.39
2022-10-17T00:48:25.716Z,14.37
2022-10-17T00:49:24.737Z,14.38
2022-10-17T00:50:24.741Z,14.37
2022-10-17T00:51:24.709Z,14.37
2022-10-17T00:52:24.932Z,14.37
2022-10-17T00:53:24.681Z,14.35
2022-10-17T00:54:24.692Z,14.32
2022-10-17T00:55:24.681Z,14.35
2022-10-17T00:56:24.658Z,14.32
2022-10-17T00:57:24.641Z,14.32
2022-10-17T00:58:24.635Z,14.31
2022-10-17T00:59:24.631Z,14.31
2022-10-17T01:00:24.641Z,14.31
2022-10-17T01:01:24.688Z,14.31
2022-10-17T01:02:24.757Z,14.29
2022-10-17T01:03:24.580Z,14.29
2022-10-17T01:04:24.571Z,14.28
2022-10-17T01:05:24.554Z,14.27
2022-10-17T01:06:24.556Z,14.25
2022-10-17T01:07:24.555Z,14.27
2022-10-17T01:08:24.527Z,14.24
2022-10-17T01:09:24.504Z,14.24
2022-10-17T01:10:24.501Z,14.21
2022-10-17T01:11:24.495Z,14.20
2022-10-17T01:12:24.559Z,14.19
2022-10-17T01:13:24.476Z,14.20
2022-10-17T01:14:24.463Z,14.17
2022-10-17T01:15:24.448Z,14.19
2022-10-17T01:16:24.465Z,14.16
2022-10-17T01:17:24.441Z,14.16
2022-10-17T01:18:24.427Z,14.16
2022-10-17T01:20:24.390Z,14.13
2022-10-17T01:21:24.377Z,14.10
2022-10-17T01:22:24.383Z,14.12
2022-10-17T01:23:24.350Z,14.10
2022-10-17T01:24:24.339Z,14.09
2022-10-17T01:25:24.337Z,14.09
2022-10-17T01:26:24.321Z,14.06
2022-10-17T01:27:24.330Z,14.07
2022-10-17T01:28:24.413Z,14.04
2022-10-17T01:29:24.281Z,14.01
2022-10-17T01:30:24.302Z,13.99
2022-10-17T01:31:24.282Z,13.99
2022-10-17T01:32:24.272Z,13.98
2022-10-17T01:33:24.239Z,13.96
2022-10-17T01:34:24.234Z,13.96
2022-10-17T01:35:24.234Z,13.95
2022-10-17T01:36:24.213Z,13.95
2022-10-17T01:37:24.194Z,13.95
2022-10-17T01:38:24.191Z,13.95
2022-10-17T01:39:25.908Z,13.94
2022-10-17T01:40:24.176Z,13.92
2022-10-17T01:41:24.150Z,13.91
2022-10-17T01:42:24.171Z,13.92
2022-10-17T01:43:24.155Z,13.89
2022-10-17T01:44:24.133Z,13.89
2022-10-17T01:45:24.110Z,13.89
2022-10-17T01:46:24.101Z,13.88
2022-10-17T01:47:24.102Z,13.88
2022-10-17T01:48:24.091Z,13.88
2022-10-17T01:49:24.069Z,13.89
2022-10-17T01:50:24.059Z,13.89
2022-10-17T01:51:24.043Z,13.88
2022-10-17T01:52:24.041Z,13.88
2022-10-17T01:53:24.038Z,13.89
2022-10-17T01:54:24.039Z,13.89
2022-10-17T01:55:23.992Z,13.87
2022-10-17T01:56:24.001Z,13.88
2022-10-17T01:57:23.976Z,13.84
2022-10-17T01:58:23.993Z,13.84
2022-10-17T01:59:23.961Z,13.84
2022-10-17T02:00:23.953Z,13.83
2022-10-17T02:01:24.005Z,13.87
2022-10-17T02:02:23.923Z,13.87
2022-10-17T02:03:23.916Z,13.84
2022-10-17T02:04:23.932Z,13.84
2022-10-17T02:05:23.905Z,13.87
2022-10-17T02:06:23.886Z,13.87
2022-10-17T02:07:23.885Z,13.87
2022-10-17T02:08:23.873Z,13.88
2022-10-17T02:09:23.850Z,13.88
2022-10-17T02:10:23.845Z,13.91
2022-10-17T02:11:23.836Z,13.91
2022-10-17T02:12:23.816Z,13.94
2022-10-17T02:13:23.835Z,13.95
2022-10-17T02:14:23.817Z,13.98
2022-10-17T02:15:23.787Z,13.99
2022-10-17T02:16:23.786Z,14.01
2022-10-17T02:17:23.778Z,14.01
2022-10-17T02:18:23.755Z,14.02
2022-10-17T02:19:23.765Z,14.06
2022-10-17T02:20:23.751Z,14.06
2022-10-17T02:21:23.721Z,14.06
2022-10-17T02:22:23.714Z,14.04
2022-10-17T02:23:23.707Z,14.04
2022-10-17T02:24:23.708Z,14.02
2022-10-17T02:25:23.680Z,14.04
2022-10-17T02:26:23.672Z,14.02
2022-10-17T02:27:23.651Z,14.02
2022-10-17T02:28:23.698Z,14.02
2022-10-17T02:29:23.638Z,14.01
2022-10-17T02:30:23.638Z,14.01
2022-10-17T02:31:23.623Z,13.98
2022-10-17T02:32:23.609Z,14.01
2022-10-17T02:33:23.614Z,14.02
2022-10-17T02:34:23.627Z,14.02
2022-10-17T02:35:23.587Z,14.02
2022-10-17T02:36:23.574Z,14.06
2022-10-17T02:37:23.564Z,14.07
2022-10-17T02:38:23.545Z,14.09
2022-10-17T02:39:23.538Z,14.07
2022-10-17T02:40:23.531Z,14.10
2022-10-17T02:41:23.591Z,14.12
2022-10-17T02:42:23.496Z,14.13
2022-10-17T02:43:23.483Z,14.14
2022-10-17T02:44:23.492Z,14.17
2022-10-17T02:45:23.465Z,14.20
2022-10-17T02:46:23.464Z,14.21
2022-10-17T02:47:23.437Z,14.24
2022-10-17T02:48:23.429Z,14.25
2022-10-17T02:49:23.430Z,14.28
2022-10-17T02:50:23.453Z,14.29
2022-10-17T02:51:23.401Z,14.34
2022-10-17T02:52:23.408Z,14.35
2022-10-17T02:53:23.376Z,14.38
2022-10-17T02:54:23.388Z,14.39
2022-10-17T02:55:23.373Z,14.42
2022-10-17T02:56:23.347Z,14.43
2022-10-17T02:57:23.332Z,14.44
2022-10-17T02:58:23.319Z,14.46
2022-10-17T02:59:23.414Z,14.47
2022-10-17T03:00:23.307Z,14.47
2022-10-17T03:01:23.344Z,14.47
2022-10-17T03:02:23.274Z,14.49
2022-10-17T03:03:23.271Z,14.50
2022-10-17T03:04:23.274Z,14.52
2022-10-17T03:05:23.272Z,14.54
2022-10-17T03:06:23.250Z,14.53
2022-10-17T03:07:23.226Z,14.56
2022-10-17T03:08:23.214Z,14.56
2022-10-17T03:09:23.205Z,14.56
2022-10-17T03:10:23.187Z,14.56
2022-10-17T03:11:23.191Z,14.60
2022-10-17T03:12:23.178Z,14.60
2022-10-17T03:13:23.158Z,14.60
2022-10-17T03:14:23.145Z,14.61
2022-10-17T03:15:23.149Z,14.61
2022-10-17T03:16:23.137Z,14.61
2022-10-17T03:17:23.127Z,14.60
2022-10-17T03:18:23.111Z,14.57
2022-10-17T03:19:23.088Z,14.57
2022-10-17T03:20:23.110Z,14.57
2022-10-17T03:21:23.070Z,14.56
2022-10-17T03:22:23.070Z,14.56
2022-10-17T03:23:24.515Z,14.57
2022-10-17T03:24:23.040Z,14.56
2022-10-17T03:25:23.047Z,14.57
2022-10-17T03:26:23.012Z,14.56
2022-10-17T03:27:23.004Z,14.54
2022-10-17T03:28:23.116Z,14.57
2022-10-17T03:29:22.983Z,14.61
2022-10-17T03:30:22.984Z,14.61
2022-10-17T03:31:22.981Z,14.57
2022-10-17T03:32:22.959Z,14.60
2022-10-17T03:33:22.945Z,14.60
2022-10-17T03:34:22.945Z,14.57
2022-10-17T03:35:22.924Z,14.57
2022-10-17T03:36:22.929Z,14.57
2022-10-17T03:37:22.893Z,14.60
2022-10-17T03:38:22.897Z,14.61
2022-10-17T03:39:22.900Z,14.61
2022-10-17T03:40:22.866Z,14.62
2022-10-17T03:41:22.857Z,14.64
2022-10-17T03:42:22.846Z,14.65
2022-10-17T03:43:22.849Z,14.65
2022-10-17T03:44:22.839Z,14.65
2022-10-17T03:45:22.821Z,14.67
2022-10-17T03:46:22.815Z,14.69
2022-10-17T03:47:22.802Z,14.69
2022-10-17T03:48:22.798Z,14.69
2022-10-17T03:49:22.780Z,14.68
2022-10-17T03:50:22.774Z,14.69
2022-10-17T03:51:22.761Z,14.68
2022-10-17T03:52:22.741Z,14.69
2022-10-17T03:53:22.722Z,14.68
2022-10-17T03:54:22.735Z,14.71
2022-10-17T03:55:22.725Z,14.71
2022-10-17T03:56:22.712Z,14.69
2022-10-17T03:57:22.684Z,14.72
2022-10-17T03:58:22.674Z,14.72
2022-10-17T03:59:22.670Z,14.72
2022-10-17T04:00:22.674Z,14.72
2022-10-17T04:01:22.769Z,14.72
2022-10-17T04:02:22.625Z,14.72
2022-10-17T04:03:22.615Z,14.74
2022-10-17T04:04:22.633Z,14.74
2022-10-17T04:05:22.596Z,14.75
2022-10-17T04:06:22.596Z,14.75
2022-10-17T04:07:22.648Z,14.75
2022-10-17T04:08:22.570Z,14.75
2022-10-17T04:09:22.559Z,14.75
2022-10-17T04:10:22.568Z,14.72
2022-10-17T04:11:22.548Z,14.74
2022-10-17T04:12:22.523Z,14.71
2022-10-17T04:13:22.516Z,14.74
2022-10-17T04:14:22.501Z,14.72
2022-10-17T04:15:22.513Z,14.72
2022-10-17T04:16:22.489Z,14.74
2022-10-17T04:17:22.481Z,14.72
2022-10-17T04:18:22.451Z,14.71
2022-10-17T04:19:22.443Z,14.72
2022-10-17T04:20:22.424Z,14.72
2022-10-17T04:21:22.444Z,14.72
2022-10-17T04:22:22.421Z,14.74
2022-10-17T04:23:22.394Z,14.74
2022-10-17T04:24:22.387Z,14.75
2022-10-17T04:25:22.379Z,14.78
2022-10-17T04:26:22.383Z,14.80
2022-10-17T04:27:22.375Z,14.80
2022-10-17T04:28:22.462Z,14.83
2022-10-17T04:29:22.344Z,14.83
2022-10-17T04:30:22.324Z,14.84
2022-10-17T04:31:22.346Z,14.86
2022-10-17T04:32:22.300Z,14.86
2022-10-17T04:33:22.304Z,14.87
2022-10-17T04:34:22.273Z,14.86
2022-10-17T04:35:22.267Z,14.87
2022-10-17T04:36:22.260Z,14.86
2022-10-17T04:37:22.268Z,14.86
2022-10-17T04:38:26.241Z,14.86
2022-10-17T04:39:23.235Z,14.87
2022-10-17T04:40:22.218Z,14.87
2022-10-17T04:41:22.205Z,14.83
2022-10-17T04:42:22.211Z,14.83
2022-10-17T04:43:22.209Z,14.83
2022-10-17T04:44:22.172Z,14.83
2022-10-17T04:45:22.171Z,14.83
2022-10-17T04:46:22.149Z,14.81
2022-10-17T04:47:22.140Z,14.83
2022-10-17T04:48:22.149Z,14.83
2022-10-17T04:49:22.132Z,14.83
2022-10-17T04:50:22.134Z,14.81
2022-10-17T04:51:24.547Z,14.83
2022-10-17T04:52:22.079Z,14.81
2022-10-17T04:53:22.081Z,14.80
2022-10-17T04:54:22.072Z,14.81
2022-10-17T04:55:22.075Z,14.80
2022-10-17T04:56:22.043Z,14.81
2022-10-17T04:57:22.038Z,14.80
2022-10-17T04:58:22.023Z,14.80
2022-10-17T04:59:22.010Z,14.83
2022-10-17T05:00:22.015Z,14.81
2022-10-17T05:01:22.084Z,14.80
2022-10-17T05:02:21.995Z,14.80
2022-10-17T05:03:21.988Z,14.83
2022-10-17T05:04:24.691Z,14.81
2022-10-17T05:05:21.949Z,14.83
2022-10-17T05:06:21.931Z,14.84
2022-10-17T05:07:21.931Z,14.84
2022-10-17T05:08:21.926Z,14.84
2022-10-17T05:09:21.921Z,14.83
2022-10-17T05:10:21.930Z,14.86
2022-10-17T05:11:22.158Z,14.86
2022-10-17T05:12:21.886Z,14.87
2022-10-17T05:13:21.882Z,14.88
2022-10-17T05:14:21.875Z,14.90
2022-10-17T05:15:21.839Z,14.90
2022-10-17T05:16:21.846Z,14.87
2022-10-17T05:17:21.820Z,14.88
2022-10-17T05:18:21.807Z,14.87
2022-10-17T05:19:21.792Z,14.90
2022-10-17T05:20:21.843Z,14.90
2022-10-17T05:21:21.839Z,14.91
2022-10-17T05:22:21.763Z,14.90
2022-10-17T05:23:21.753Z,14.91
2022-10-17T05:24:21.734Z,14.94
2022-10-17T05:25:21.763Z,14.94
2022-10-17T05:26:21.802Z,14.95
2022-10-17T05:27:21.708Z,14.95
2022-10-17T05:28:21.791Z,14.95
2022-10-17T05:29:21.813Z,14.98
2022-10-17T05:30:21.762Z,14.98
2022-10-17T05:31:21.660Z,14.99
2022-10-17T05:32:21.693Z,15.01
2022-10-17T05:33:21.757Z,15.01
2022-10-17T05:34:21.647Z,15.02
2022-10-17T05:35:21.621Z,15.03
2022-10-17T05:36:21.650Z,15.02
2022-10-17T05:37:21.633Z,15.03
2022-10-17T05:38:21.608Z,15.03
2022-10-17T05:39:21.598Z,15.02
2022-10-17T05:40:21.590Z,15.05
2022-10-17T05:41:21.592Z,15.03
2022-10-17T05:42:21.620Z,15.06
2022-10-17T05:43:21.540Z,15.05
2022-10-17T05:44:21.564Z,15.08
2022-10-17T05:45:21.572Z,15.08
2022-10-17T05:46:21.516Z,15.09
2022-10-17T05:47:21.494Z,15.09
2022-10-17T05:48:21.495Z,15.08
2022-10-17T05:49:32.955Z,15.11
2022-10-17T05:50:22.503Z,15.12
2022-10-17T05:51:21.494Z,15.12
2022-10-17T05:52:21.476Z,15.12
2022-10-17T05:53:21.510Z,15.12
2022-10-17T05:54:21.472Z,15.13
2022-10-17T05:55:21.417Z,15.13
2022-10-17T05:56:21.416Z,15.13
2022-10-17T05:57:21.392Z,15.15
2022-10-17T05:58:22.405Z,15.17
2022-10-17T05:59:22.420Z,15.13
2022-10-17T06:00:21.397Z,15.15
2022-10-17T06:01:21.387Z,15.19
2022-10-17T06:02:21.483Z,15.15
2022-10-17T06:03:21.327Z,15.15
2022-10-17T06:04:23.080Z,15.17
2022-10-17T06:05:21.289Z,15.17
2022-10-17T06:06:22.236Z,15.15
2022-10-17T06:07:21.269Z,15.15
2022-10-17T06:08:21.269Z,15.15
2022-10-17T06:09:21.303Z,15.15
2022-10-17T06:10:21.239Z,15.15
2022-10-17T06:11:21.235Z,15.15
2022-10-17T06:12:21.232Z,15.17
2022-10-17T06:13:21.262Z,15.17
2022-10-17T06:14:21.197Z,15.15
2022-10-17T06:15:21.181Z,15.19
2022-10-17T06:16:21.229Z,15.20
2022-10-17T06:17:21.177Z,15.19
2022-10-17T06:18:21.168Z,15.19
2022-10-17T06:19:21.152Z,15.19
2022-10-17T06:20:21.143Z,15.21
2022-10-17T06:21:21.302Z,15.21
2022-10-17T06:22:21.160Z,15.23
2022-10-17T06:23:21.102Z,15.24
2022-10-17T06:24:21.088Z,15.24
2022-10-17T06:25:21.110Z,15.26
2022-10-17T06:26:21.097Z,15.30
2022-10-17T06:27:21.076Z,15.30
2022-10-17T06:28:21.221Z,15.31
2022-10-17T06:29:21.106Z,15.33
2022-10-17T06:30:21.037Z,15.36
2022-10-17T06:31:21.002Z,15.39
2022-10-17T06:32:21.018Z,15.41
2022-10-17T06:33:21.995Z,15.43
2022-10-17T06:34:20.969Z,15.46
2022-10-17T06:35:20.990Z,15.49
2022-10-17T06:36:21.001Z,15.52
2022-10-17T06:37:20.950Z,15.54
2022-10-17T06:38:20.922Z,15.57
2022-10-17T06:39:20.976Z,15.59
2022-10-17T06:40:20.911Z,15.59
2022-10-17T06:41:21.000Z,15.63
2022-10-17T06:42:20.900Z,15.64
2022-10-17T06:43:25.391Z,15.66
2022-10-17T06:44:21.950Z,15.67
2022-10-17T06:45:20.918Z,15.70
2022-10-17T06:46:20.842Z,15.70
2022-10-17T06:47:20.841Z,15.72
2022-10-17T06:48:20.855Z,15.76
2022-10-17T06:49:20.823Z,15.76
2022-10-17T06:50:20.825Z,15.79
2022-10-17T06:51:20.784Z,15.81
2022-10-17T06:52:20.787Z,15.84
2022-10-17T06:53:20.835Z,15.86
2022-10-17T06:54:20.850Z,15.88
2022-10-17T06:55:23.075Z,15.94
2022-10-17T06:56:20.739Z,15.97
2022-10-17T06:57:20.829Z,16.03
2022-10-17T06:58:20.726Z,16.06
2022-10-17T06:59:20.720Z,16.11
2022-10-17T07:00:20.713Z,16.15
2022-10-17T07:01:20.703Z,16.20
2022-10-17T07:02:20.700Z,16.22
2022-10-17T07:03:20.675Z,16.25
2022-10-17T07:04:20.648Z,16.31
2022-10-17T07:05:20.664Z,16.27
2022-10-17T07:06:20.655Z,16.30
2022-10-17T07:07:20.661Z,16.30
2022-10-17T07:08:20.619Z,16.33
2022-10-17T07:09:20.638Z,16.40
2022-10-17T07:10:20.632Z,16.45
2022-10-17T07:11:20.697Z,16.49
2022-10-17T07:12:20.603Z,16.56
2022-10-17T07:13:20.565Z,16.60
2022-10-17T07:14:20.571Z,16.65
2022-10-17T07:15:20.555Z,16.73
2022-10-17T07:16:20.568Z,16.77
2022-10-17T07:17:20.517Z,16.85
2022-10-17T07:18:20.495Z,16.90
2022-10-17T07:19:20.524Z,16.95
2022-10-17T07:20:20.504Z,17.03
2022-10-17T07:21:20.510Z,17.06
2022-10-17T07:22:20.545Z,17.13
2022-10-17T07:23:20.465Z,17.18
2022-10-17T07:24:20.441Z,17.25
2022-10-17T07:25:20.422Z,17.29
2022-10-17T07:26:20.481Z,17.36
2022-10-17T07:27:20.431Z,17.33
2022-10-17T07:28:20.384Z,17.33
2022-10-17T07:29:20.419Z,17.38
2022-10-17T07:30:20.403Z,17.38
2022-10-17T07:31:20.368Z,17.35
2022-10-17T07:32:20.352Z,17.40
2022-10-17T07:33:20.320Z,17.40
2022-10-17T07:34:20.329Z,17.38
2022-10-17T07:35:20.328Z,17.36
2022-10-17T07:36:20.309Z,17.43
2022-10-17T07:37:20.287Z,17.48
2022-10-17T07:38:21.218Z,17.51
2022-10-17T07:39:20.295Z,17.57
2022-10-17T07:40:20.254Z,17.59
2022-10-17T07:41:21.804Z,17.59
2022-10-17T07:42:20.235Z,17.55
2022-10-17T07:43:20.232Z,17.54
2022-10-17T07:44:20.231Z,17.54
2022-10-17T07:45:20.238Z,17.54
2022-10-17T07:46:20.200Z,17.57
2022-10-17T07:47:20.235Z,17.59
2022-10-17T07:48:20.174Z,17.63
2022-10-17T07:49:20.181Z,17.62
2022-10-17T07:50:20.147Z,17.64
2022-10-17T07:51:20.132Z,17.63
2022-10-17T07:52:20.141Z,17.66
2022-10-17T07:53:20.127Z,17.67
2022-10-17T07:54:20.120Z,17.69
2022-10-17T07:55:20.098Z,17.71
2022-10-17T07:56:20.106Z,17.71
2022-10-17T07:57:20.106Z,17.74
2022-10-17T07:58:20.058Z,17.71
2022-10-17T07:59:20.060Z,17.74
2022-10-17T08:00:20.061Z,17.78
2022-10-17T08:01:20.049Z,17.82
2022-10-17T08:02:20.055Z,17.87
2022-10-17T08:03:20.031Z,17.89
2022-10-17T08:04:20.001Z,17.89
2022-10-17T08:05:19.982Z,17.91
2022-10-17T08:06:19.994Z,17.92
2022-10-17T08:07:24.134Z,17.92
2022-10-17T08:08:20.953Z,17.99
2022-10-17T08:09:19.945Z,17.99
2022-10-17T08:10:19.933Z,18.02
2022-10-17T08:11:19.933Z,18.03
2022-10-17T08:12:19.907Z,18.07
2022-10-17T08:13:19.895Z,18.09
2022-10-17T08:14:19.886Z,18.09
2022-10-17T08:15:19.891Z,18.10
2022-10-17T08:16:19.870Z,18.12
2022-10-17T08:17:19.864Z,18.10
2022-10-17T08:18:19.850Z,18.12
2022-10-17T08:19:19.859Z,18.17
2022-10-17T08:20:19.826Z,18.15
2022-10-17T08:21:19.836Z,18.17
2022-10-17T08:22:19.811Z,18.13
2022-10-17T08:23:19.811Z,18.15
2022-10-17T08:24:19.785Z,18.18
2022-10-17T08:25:19.778Z,18.18
2022-10-17T08:26:19.773Z,18.19
2022-10-17T08:27:19.739Z,18.24
2022-10-17T08:28:19.739Z,18.27
2022-10-17T08:29:19.764Z,18.29
2022-10-17T08:30:19.719Z,18.31
2022-10-17T08:31:19.723Z,18.36
2022-10-17T08:32:19.711Z,18.36
2022-10-17T08:33:19.672Z,18.37
2022-10-17T08:34:19.682Z,18.40
2022-10-17T08:35:19.672Z,18.42
2022-10-17T08:36:19.667Z,18.46
2022-10-17T08:37:19.653Z,18.49
2022-10-17T08:38:21.086Z,18.54
2022-10-17T08:39:19.614Z,18.54
2022-10-17T08:40:19.603Z,18.55
2022-10-17T08:41:19.588Z,18.55
2022-10-17T08:42:19.616Z,18.58
2022-10-17T08:43:19.577Z,18.57
2022-10-17T08:44:19.558Z,18.55
2022-10-17T08:45:19.552Z,18.58
2022-10-17T08:46:19.555Z,18.57
2022-10-17T08:47:19.682Z,18.58
2022-10-17T08:48:19.519Z,18.58
2022-10-17T08:49:19.516Z,18.57
2022-10-17T08:50:19.499Z,18.59
2022-10-17T08:51:19.493Z,18.58
2022-10-17T08:52:19.481Z,18.62
2022-10-17T08:53:19.477Z,18.70
2022-10-17T08:54:19.453Z,18.74
2022-10-17T08:56:24.882Z,18.86
2022-10-17T08:57:20.424Z,18.90
2022-10-17T08:58:19.420Z,18.97
2022-10-17T08:59:19.396Z,19.02
2022-10-17T09:00:19.405Z,19.05
2022-10-17T09:01:19.375Z,19.08
2022-10-17T09:02:19.376Z,19.13
2022-10-17T09:03:19.432Z,19.17
2022-10-17T09:04:19.425Z,19.23
2022-10-17T09:05:22.568Z,19.24
2022-10-17T09:06:20.330Z,19.20
2022-10-17T09:07:19.305Z,19.23
2022-10-17T09:08:19.319Z,19.21
2022-10-17T09:09:19.313Z,19.24
2022-10-17T09:10:19.283Z,19.28
2022-10-17T09:11:19.260Z,19.29
2022-10-17T09:12:19.257Z,19.29
2022-10-17T09:13:19.273Z,19.28
2022-10-17T09:14:19.248Z,19.35
2022-10-17T09:15:19.242Z,19.33
2022-10-17T09:16:19.244Z,19.35
2022-10-17T09:17:19.221Z,19.33
2022-10-17T09:18:21.173Z,19.32
2022-10-17T09:19:19.186Z,19.25
2022-10-17T09:20:19.177Z,19.29
2022-10-17T09:21:19.178Z,19.32
2022-10-17T09:22:19.182Z,19.35
2022-10-17T09:23:19.140Z,19.33
2022-10-17T09:24:19.141Z,19.33
2022-10-17T09:25:19.127Z,19.40
2022-10-17T09:26:19.123Z,19.47
2022-10-17T09:27:19.108Z,19.50
2022-10-17T09:28:19.154Z,19.55
2022-10-17T09:29:19.073Z,19.60
2022-10-17T09:30:40.156Z,19.63
2022-10-17T09:31:20.053Z,19.68
2022-10-17T09:32:19.138Z,19.70
2022-10-17T09:33:34.278Z,19.75
2022-10-17T09:34:21.958Z,19.79
2022-10-17T09:35:19.028Z,19.83
2022-10-17T09:36:19.029Z,19.87
2022-10-17T09:37:18.989Z,19.91
2022-10-17T09:38:18.978Z,19.93
2022-10-17T09:39:19.006Z,19.95
2022-10-17T09:40:19.013Z,19.98
2022-10-17T09:41:44.384Z,20.03
2022-10-17T09:42:19.961Z,20.05
2022-10-17T09:43:19.038Z,20.05
2022-10-17T09:44:18.918Z,20.08
2022-10-17T09:45:18.916Z,20.06
2022-10-17T09:46:18.905Z,20.08
2022-10-17T09:47:18.903Z,20.08
2022-10-17T09:48:18.940Z,20.12
2022-10-17T09:49:18.879Z,20.16
2022-10-17T09:50:18.906Z,20.20
2022-10-17T09:51:25.632Z,20.21
2022-10-17T09:52:19.867Z,20.24
2022-10-17T09:53:18.816Z,20.25
2022-10-17T09:54:18.823Z,20.28
2022-10-17T09:55:18.804Z,20.31
2022-10-17T09:56:18.799Z,20.38
2022-10-17T09:57:18.843Z,20.38
2022-10-17T09:58:18.850Z,20.39
2022-10-17T09:59:18.757Z,20.46
2022-10-17T10:00:18.749Z,20.50
2022-10-17T10:01:22.740Z,20.54
2022-10-17T10:02:19.740Z,20.58
2022-10-17T10:03:18.812Z,20.62
2022-10-17T10:04:18.704Z,20.64
2022-10-17T10:05:18.681Z,20.66
2022-10-17T10:06:18.693Z,20.66
2022-10-17T10:07:18.684Z,20.69
2022-10-17T10:08:18.662Z,20.68
2022-10-17T10:09:18.665Z,20.65
2022-10-17T10:10:18.641Z,20.65
2022-10-17T10:11:18.662Z,20.66
2022-10-17T10:12:18.646Z,20.72
2022-10-17T10:13:18.606Z,20.74
2022-10-17T10:14:18.586Z,20.77
2022-10-17T10:15:18.631Z,20.81
2022-10-17T10:16:18.579Z,20.80
2022-10-17T10:17:18.558Z,20.87
2022-10-17T10:18:18.586Z,20.95
2022-10-17T10:19:18.536Z,20.98
2022-10-17T10:20:18.527Z,21.02
2022-10-17T10:21:18.509Z,21.06
2022-10-17T10:22:18.506Z,21.09
2022-10-17T10:23:18.507Z,21.16
2022-10-17T10:24:18.493Z,21.21
2022-10-17T10:25:18.482Z,21.23
2022-10-17T10:26:21.099Z,21.26
2022-10-17T10:27:18.497Z,21.29
2022-10-17T10:28:18.484Z,21.32
2022-10-17T10:29:18.429Z,21.35
2022-10-17T10:30:18.420Z,21.41
2022-10-17T10:31:18.438Z,21.48
2022-10-17T10:32:18.404Z,21.51
2022-10-17T10:33:18.403Z,21.56
2022-10-17T10:34:18.375Z,21.59
2022-10-17T10:35:18.386Z,21.66
2022-10-17T10:36:18.369Z,21.74
2022-10-17T10:37:18.345Z,21.82
2022-10-17T10:38:18.335Z,21.83
2022-10-17T10:39:18.323Z,21.83
2022-10-17T10:40:18.313Z,21.90
2022-10-17T10:41:18.317Z,21.91
2022-10-17T10:42:19.751Z,21.92
2022-10-17T10:43:19.087Z,21.91
2022-10-17T10:44:18.274Z,21.92
2022-10-17T10:45:35.955Z,21.97
2022-10-17T10:46:19.448Z,22.01
2022-10-17T10:47:18.255Z,22.01
2022-10-17T10:48:19.179Z,22.01
2022-10-17T10:49:18.251Z,21.98
2022-10-17T10:50:18.248Z,21.95
2022-10-17T10:51:19.149Z,21.94
2022-10-17T10:52:19.177Z,21.95
2022-10-17T10:53:18.988Z,21.92
2022-10-17T10:54:18.252Z,21.92
2022-10-17T10:55:19.605Z,21.94
2022-10-17T10:56:18.251Z,21.92
2022-10-17T10:57:18.127Z,21.90
2022-10-17T10:58:18.120Z,21.90
2022-10-17T10:59:18.119Z,21.91
2022-10-17T11:00:18.114Z,21.94
2022-10-17T11:01:18.152Z,21.94
2022-10-17T11:02:18.083Z,21.94
2022-10-17T11:03:18.075Z,21.97
2022-10-17T11:04:18.058Z,22.01
2022-10-17T11:05:18.071Z,21.98
2022-10-17T11:06:18.035Z,21.98
2022-10-17T11:07:18.039Z,21.98
2022-10-17T11:08:18.001Z,21.98
2022-10-17T11:09:18.000Z,21.99
2022-10-17T11:10:18.004Z,21.99
2022-10-17T11:11:17.987Z,21.99
2022-10-17T11:12:17.981Z,22.01
2022-10-17T11:13:17.963Z,22.01
2022-10-17T11:14:17.941Z,21.98
2022-10-17T11:15:17.971Z,21.97
2022-10-17T11:16:17.941Z,21.99
2022-10-17T11:17:17.930Z,22.04
2022-10-17T11:18:17.908Z,22.06
2022-10-17T11:19:17.892Z,22.09
2022-10-17T11:20:17.873Z,22.10
2022-10-17T11:21:17.863Z,22.13
2022-10-17T11:22:17.879Z,22.17
2022-10-17T11:23:17.848Z,22.23
2022-10-17T11:24:17.855Z,22.34
2022-10-17T11:25:18.822Z,22.38
2022-10-17T11:26:17.813Z,22.41
2022-10-17T11:27:18.749Z,22.43
2022-10-17T11:28:17.819Z,22.41
2022-10-17T11:29:17.780Z,22.43
2022-10-17T11:30:17.802Z,22.44
2022-10-17T11:31:17.762Z,22.47
2022-10-17T11:32:17.825Z,22.49
2022-10-17T11:33:17.733Z,22.49
2022-10-17T11:34:17.762Z,22.50
2022-10-17T11:35:17.757Z,22.52
2022-10-17T11:36:17.705Z,22.53
2022-10-17T11:37:17.717Z,22.54
2022-10-17T11:38:17.704Z,22.59
2022-10-17T11:39:17.670Z,22.60
2022-10-17T11:40:20.424Z,22.59
2022-10-17T11:41:18.665Z,22.59
2022-10-17T11:42:17.679Z,22.54
2022-10-17T11:43:17.653Z,22.49
2022-10-17T11:44:17.624Z,22.46
2022-10-17T11:45:17.620Z,22.50
2022-10-17T11:46:17.670Z,22.52
2022-10-17T11:47:17.601Z,22.50
2022-10-17T11:48:17.582Z,22.53
2022-10-17T11:49:20.606Z,22.57
2022-10-17T11:52:31.916Z,22.68
2022-10-17T11:53:18.528Z,22.74
2022-10-17T11:54:17.737Z,22.78
2022-10-17T11:55:18.462Z,22.84
2022-10-17T11:56:17.498Z,22.86
2022-10-17T11:57:17.575Z,22.86
2022-10-17T11:58:17.542Z,22.90
2022-10-17T11:59:17.456Z,22.92
2022-10-17T12:00:17.452Z,22.89
2022-10-17T12:01:17.439Z,22.93
2022-10-17T12:02:17.449Z,22.90
2022-10-17T12:03:17.412Z,22.92
2022-10-17T12:04:17.447Z,22.93
2022-10-17T12:05:17.394Z,22.97
2022-10-17T12:06:17.412Z,22.96
2022-10-17T12:07:17.379Z,22.96
2022-10-17T12:08:17.374Z,22.94
2022-10-17T12:09:17.426Z,22.97
2022-10-17T12:10:17.345Z,22.94
2022-10-17T12:11:17.355Z,22.96
2022-10-17T12:12:17.337Z,22.97
2022-10-17T12:13:17.320Z,23.02
2022-10-17T12:14:17.293Z,23.04
2022-10-17T12:15:17.300Z,23.05
2022-10-17T12:16:17.660Z,23.01
2022-10-17T12:17:17.270Z,22.99
2022-10-17T12:18:17.258Z,22.99
2022-10-17T12:19:17.268Z,23.02
2022-10-17T12:20:17.261Z,23.01
2022-10-17T12:21:17.240Z,22.96
2022-10-17T12:22:17.936Z,22.93
2022-10-17T12:23:17.206Z,22.94
2022-10-17T12:24:18.937Z,22.94
2022-10-17T12:25:17.857Z,22.96
2022-10-17T12:26:17.162Z,22.94
2022-10-17T12:27:17.223Z,22.92
2022-10-17T12:28:17.151Z,22.90
2022-10-17T12:29:17.156Z,22.92
2022-10-17T12:30:17.136Z,22.90
2022-10-17T12:31:17.124Z,22.90
2022-10-17T12:32:17.135Z,22.92
2022-10-17T12:33:17.100Z,22.87
2022-10-17T12:34:17.081Z,22.89
2022-10-17T12:35:17.068Z,22.92
2022-10-17T12:36:17.132Z,22.93
2022-10-17T12:37:17.177Z,22.94
2022-10-17T12:38:17.090Z,22.97
2022-10-17T12:39:17.128Z,22.99
2022-10-17T12:40:17.059Z,23.04
2022-10-17T12:41:17.127Z,23.07
2022-10-17T12:42:16.987Z,23.04
2022-10-17T12:43:16.996Z,23.02
2022-10-17T12:44:16.989Z,23.04
2022-10-17T12:45:17.028Z,23.07
2022-10-17T12:46:16.967Z,23.11
2022-10-17T12:47:16.943Z,23.14
2022-10-17T12:48:16.973Z,23.19
2022-10-17T12:49:16.932Z,23.15
2022-10-17T12:50:16.914Z,23.11
2022-10-17T12:51:34.672Z,23.07
2022-10-17T12:52:17.945Z,23.02
2022-10-17T12:53:19.176Z,23.01
2022-10-17T12:54:16.952Z,22.99
2022-10-17T12:55:16.881Z,23.01
2022-10-17T12:56:16.903Z,22.97